createdAt,value
2019-03-29T00:00:01.801Z,102072.02
2019-03-29T00:02:35.987Z,102084.65
2019-03-29T00:05:08.958Z,102077.32
2019-03-29T00:07:42.794Z,102079.50
2019-03-29T00:10:15.458Z,102069.55
2019-03-29T00:12:48.046Z,102074.35
2019-03-29T00:15:20.804Z,102079.11
2019-03-29T00:17:53.393Z,102083.02
2019-03-29T00:20:26.440Z,102082.62
2019-03-29T00:22:59.163Z,102085.27
2019-03-29T00:25:33.009Z,102086.59
2019-03-29T00:28:05.747Z,102090.09
2019-03-29T00:30:40.042Z,102091.81
2019-03-29T00:33:12.663Z,102093.58
2019-03-29T00:35:45.484Z,102083.61
2019-03-29T00:38:18.141Z,102076.69
2019-03-29T00:40:51.073Z,102073.22
2019-03-29T00:43:23.641Z,102078.44
2019-03-29T00:45:58.866Z,102080.61
2019-03-29T00:48:31.424Z,102068.55
2019-03-29T00:51:05.726Z,102069.84
2019-03-29T00:53:38.337Z,102068.16
2019-03-29T00:56:11.130Z,102066.86
2019-03-29T00:58:43.706Z,102069.03
2019-03-29T01:01:16.599Z,102067.80
2019-03-29T01:03:49.354Z,102067.81
2019-03-29T01:06:23.590Z,102064.37
2019-03-29T01:08:56.763Z,102065.70
2019-03-29T01:11:29.690Z,102070.47
2019-03-29T01:14:02.428Z,102066.58
2019-03-29T01:16:37.117Z,102058.84
2019-03-29T01:19:09.744Z,102058.41
2019-03-29T01:21:43.747Z,102054.97
2019-03-29T01:24:16.345Z,102060.62
2019-03-29T01:26:50.934Z,102053.74
2019-03-29T01:29:23.487Z,102055.05
2019-03-29T01:31:56.128Z,102057.22
2019-03-29T01:34:28.741Z,102063.31
2019-03-29T01:37:01.865Z,102068.50
2019-03-29T01:39:34.539Z,102068.50
2019-03-29T01:42:08.903Z,102068.06
2019-03-29T01:44:41.452Z,102069.81
2019-03-29T01:47:14.273Z,102073.72
2019-03-29T01:49:46.823Z,102069.83
2019-03-29T01:52:20.022Z,102065.50
2019-03-29T01:54:54.980Z,102065.95
2019-03-29T01:57:27.860Z,102072.44
2019-03-29T02:00:00.413Z,102067.70
2019-03-29T02:02:33.234Z,102066.86
2019-03-29T02:05:06.528Z,102067.30
2019-03-29T02:07:39.606Z,102069.00
2019-03-29T02:10:13.061Z,102068.54
2019-03-29T02:12:45.783Z,102070.22
2019-03-29T02:15:18.639Z,102067.14
2019-03-29T02:17:51.499Z,102067.56
2019-03-29T02:20:24.162Z,102064.44
2019-03-29T02:22:58.661Z,102059.59
2019-03-29T02:25:31.257Z,102054.36
2019-03-29T02:28:04.122Z,102049.48
2019-03-29T02:30:36.766Z,102047.23
2019-03-29T02:33:09.800Z,102041.45
2019-03-29T02:35:42.457Z,102043.05
2019-03-29T02:38:15.860Z,102039.47
2019-03-29T02:40:48.466Z,102034.61
2019-03-29T02:43:21.219Z,102036.78
2019-03-29T02:45:53.791Z,102026.77
2019-03-29T02:48:26.591Z,102033.27
2019-03-29T02:50:59.344Z,102026.37
2019-03-29T02:53:37.626Z,102019.91
2019-03-29T02:56:10.560Z,102017.28
2019-03-29T02:58:43.202Z,102011.66
2019-03-29T03:01:15.828Z,102005.19
2019-03-29T03:03:49.713Z,101994.80
2019-03-29T03:06:22.331Z,101997.38
2019-03-29T03:09:12.284Z,101992.62
2019-03-29T03:11:29.655Z,101992.62
2019-03-29T03:14:02.351Z,101994.78
2019-03-29T03:16:36.727Z,101983.05
2019-03-29T03:19:09.420Z,101984.78
2019-03-29T03:21:41.996Z,101989.94
2019-03-29T03:24:15.072Z,102003.33
2019-03-29T03:26:47.667Z,101993.76
2019-03-29T03:29:20.240Z,101997.20
2019-03-29T03:31:53.009Z,102003.25
2019-03-29T03:34:27.056Z,102000.17
2019-03-29T03:36:59.765Z,102003.57
2019-03-29T03:39:34.769Z,102010.91
2019-03-29T03:42:07.588Z,102013.02
2019-03-29T03:44:40.340Z,102012.56
2019-03-29T03:47:12.915Z,102019.00
2019-03-29T03:49:45.624Z,102026.77
2019-03-29T03:52:18.257Z,102026.37
2019-03-29T03:54:52.459Z,102011.59
2019-03-29T03:57:26.061Z,102008.67
2019-03-29T04:00:00.797Z,102016.90
2019-03-29T04:02:35.201Z,102011.70
2019-03-29T04:05:09.383Z,102010.81
2019-03-29T04:07:41.979Z,102003.91
2019-03-29T04:10:14.995Z,102002.64
2019-03-29T04:12:47.567Z,102010.38
2019-03-29T04:15:20.459Z,102009.92
2019-03-29T04:17:53.071Z,102006.87
2019-03-29T04:20:25.934Z,102007.69
2019-03-29T04:23:00.071Z,102006.84
2019-03-29T04:25:33.023Z,102001.20
2019-03-29T04:28:05.645Z,101992.95
2019-03-29T04:30:38.313Z,101991.23
2019-03-29T04:33:11.418Z,102000.34
2019-03-29T04:35:45.629Z,101997.75
2019-03-29T04:38:18.398Z,102004.14
2019-03-29T04:40:51.383Z,101997.73
2019-03-29T04:43:25.150Z,101999.46
2019-03-29T04:45:58.043Z,102009.39
2019-03-29T04:48:31.694Z,102010.27
2019-03-29T04:51:04.362Z,102008.07
2019-03-29T04:53:36.977Z,102012.86
2019-03-29T04:56:11.336Z,102017.23
2019-03-29T04:58:43.955Z,102015.11
2019-03-29T05:01:17.445Z,102010.88
2019-03-29T05:03:53.158Z,102011.61
2019-03-29T05:06:26.051Z,102004.27
2019-03-29T05:08:58.684Z,102003.57
2019-03-29T05:11:31.512Z,102006.47
2019-03-29T05:14:04.094Z,102011.91
2019-03-29T05:16:37.094Z,102024.05
2019-03-29T05:19:09.698Z,102023.19
2019-03-29T05:21:42.408Z,102026.15
2019-03-29T05:24:14.986Z,102029.48
2019-03-29T05:26:52.790Z,102017.84
2019-03-29T05:29:25.352Z,102019.92
2019-03-29T05:31:58.397Z,102019.39
2019-03-29T05:34:33.437Z,102023.00
2019-03-29T05:37:06.150Z,102015.72
2019-03-29T05:39:38.697Z,102016.37
2019-03-29T05:42:11.770Z,102022.39
2019-03-29T05:44:44.339Z,102034.39
2019-03-29T05:47:17.137Z,102045.08
2019-03-29T05:49:49.736Z,102042.05
2019-03-29T05:52:23.526Z,102042.12
2019-03-29T05:54:58.962Z,102044.25
2019-03-29T05:57:31.559Z,102040.97
2019-03-29T06:00:04.333Z,102046.20
2019-03-29T06:02:36.960Z,102048.36
2019-03-29T06:05:09.648Z,102049.69
2019-03-29T06:07:42.579Z,102058.12
2019-03-29T06:10:16.337Z,102053.64
2019-03-29T06:12:49.227Z,102048.27
2019-03-29T06:15:21.839Z,102046.44
2019-03-29T06:17:55.948Z,102048.16
2019-03-29T06:20:28.514Z,102047.91
2019-03-29T06:23:01.317Z,102052.14
2019-03-29T06:25:33.892Z,102049.11
2019-03-29T06:28:09.835Z,102051.45
2019-03-29T06:30:43.441Z,102058.69
2019-03-29T06:33:19.002Z,102065.39
2019-03-29T06:35:54.320Z,102070.07
2019-03-29T06:38:30.071Z,102079.31
2019-03-29T06:41:03.677Z,102069.09
2019-03-29T06:43:37.157Z,102072.12
2019-03-29T06:46:09.909Z,102071.61
2019-03-29T06:48:42.761Z,102063.49
2019-03-29T06:51:15.469Z,102061.09
2019-03-29T06:53:48.103Z,102057.28
2019-03-29T06:56:20.728Z,102052.06
2019-03-29T06:58:53.893Z,102061.03
2019-03-29T07:01:26.463Z,102056.58
2019-03-29T07:03:59.221Z,102068.32
2019-03-29T07:06:31.832Z,102053.26
2019-03-29T07:09:06.555Z,102052.28
2019-03-29T07:11:39.749Z,102054.03
2019-03-29T07:14:13.061Z,102044.58
2019-03-29T07:16:45.736Z,102042.38
2019-03-29T07:19:18.688Z,102042.12
2019-03-29T07:21:51.315Z,102037.19
2019-03-29T07:24:24.045Z,102033.52
2019-03-29T07:26:56.626Z,102039.05
2019-03-29T07:29:29.544Z,102035.12
2019-03-29T07:32:02.211Z,102027.83
2019-03-29T07:34:35.021Z,102027.16
2019-03-29T07:37:07.636Z,102024.20
2019-03-29T07:39:40.685Z,102033.10
2019-03-29T07:42:13.282Z,102033.44
2019-03-29T07:44:46.642Z,102023.59
2019-03-29T07:47:19.269Z,102024.20
2019-03-29T07:49:52.104Z,102026.69
2019-03-29T07:52:24.678Z,102030.34
2019-03-29T07:54:57.687Z,102027.61
2019-03-29T07:57:30.278Z,102035.64
2019-03-29T08:00:03.181Z,102043.93
2019-03-29T08:02:36.014Z,102044.47
2019-03-29T08:05:10.066Z,102041.05
2019-03-29T08:07:45.681Z,102034.43
2019-03-29T08:10:25.718Z,102021.96
2019-03-29T08:12:52.718Z,102026.89
2019-03-29T08:15:25.979Z,102031.64
2019-03-29T08:18:01.614Z,102033.28
2019-03-29T08:20:43.826Z,102023.39
2019-03-29T08:23:07.667Z,102024.70
2019-03-29T08:25:40.374Z,102019.64
2019-03-29T08:28:12.994Z,102024.33
2019-03-29T08:30:46.072Z,102023.57
2019-03-29T08:33:19.949Z,102022.52
2019-03-29T08:35:52.659Z,102019.63
2019-03-29T08:38:25.232Z,102022.75
2019-03-29T08:40:58.633Z,102011.14
2019-03-29T08:43:31.741Z,102006.77
2019-03-29T08:46:05.108Z,102013.94
2019-03-29T08:48:37.821Z,102006.22
2019-03-29T08:51:10.791Z,102011.78
2019-03-29T08:53:43.515Z,102004.86
2019-03-29T08:56:16.352Z,101996.34
2019-03-29T08:58:48.939Z,101996.27
2019-03-29T09:01:23.218Z,101997.70
2019-03-29T09:04:05.268Z,101995.22
2019-03-29T09:06:31.610Z,101999.91
2019-03-29T09:09:06.395Z,102003.42
2019-03-29T09:11:39.304Z,101999.80
2019-03-29T09:14:11.868Z,102001.38
2019-03-29T09:16:45.183Z,102003.08
2019-03-29T09:19:18.011Z,102006.89
2019-03-29T09:21:50.963Z,102005.22
2019-03-29T09:24:24.903Z,102010.72
2019-03-29T09:26:57.529Z,102003.64
2019-03-29T09:29:30.133Z,102006.17
2019-03-29T09:32:03.057Z,101995.30
2019-03-29T09:34:35.648Z,101991.45
2019-03-29T09:37:08.463Z,101986.41
2019-03-29T09:39:41.055Z,101989.13
2019-03-29T09:42:27.798Z,101986.84
2019-03-29T09:44:48.203Z,101982.77
2019-03-29T09:47:20.968Z,101979.39
2019-03-29T09:49:53.570Z,101974.09
2019-03-29T09:52:26.478Z,101969.58
2019-03-29T09:54:59.116Z,101970.64
2019-03-29T09:57:37.160Z,101975.00
2019-03-29T10:00:18.052Z,101967.12
2019-03-29T10:02:41.912Z,101972.56
2019-03-29T10:05:14.538Z,101957.73
2019-03-29T10:07:47.251Z,101956.59
2019-03-29T10:10:19.859Z,101946.87
2019-03-29T10:12:55.808Z,101942.46
2019-03-29T10:15:28.417Z,101934.84
2019-03-29T10:18:01.799Z,101932.27
2019-03-29T10:20:34.399Z,101935.53
2019-03-29T10:23:07.254Z,101932.69
2019-03-29T10:25:39.783Z,101928.52
2019-03-29T10:28:13.127Z,101929.63
2019-03-29T10:30:47.102Z,101933.31
2019-03-29T10:33:20.235Z,101933.24
2019-03-29T10:35:53.198Z,101936.33
2019-03-29T10:38:28.478Z,101936.72
2019-03-29T10:41:01.117Z,101937.54
2019-03-29T10:43:34.525Z,101937.27
2019-03-29T10:46:07.155Z,101934.00
2019-03-29T10:48:41.125Z,101937.57
2019-03-29T10:51:15.002Z,101936.34
2019-03-29T10:53:47.664Z,101929.71
2019-03-29T10:56:33.467Z,101926.28
2019-03-29T10:58:54.918Z,101920.83
2019-03-29T11:01:27.577Z,101922.35
2019-03-29T11:04:00.894Z,101923.05
2019-03-29T11:06:33.509Z,101918.10
2019-03-29T11:09:08.636Z,101919.55
2019-03-29T11:11:41.241Z,101921.63
2019-03-29T11:14:14.167Z,101921.06
2019-03-29T11:16:46.868Z,101922.12
2019-03-29T11:19:20.525Z,101915.78
2019-03-29T11:21:53.085Z,101919.03
2019-03-29T11:24:26.022Z,101913.62
2019-03-29T11:26:58.624Z,101921.52
2019-03-29T11:29:31.256Z,101909.17
2019-03-29T11:32:04.272Z,101900.87
2019-03-29T11:34:37.985Z,101908.00
2019-03-29T11:37:11.338Z,101893.43
2019-03-29T11:39:44.873Z,101892.50
2019-03-29T11:42:18.209Z,101890.78
2019-03-29T11:44:51.296Z,101886.89
2019-03-29T11:47:24.018Z,101886.89
2019-03-29T11:49:57.122Z,101888.69
2019-03-29T11:52:29.781Z,101889.91
2019-03-29T11:55:02.808Z,101888.13
2019-03-29T11:57:37.048Z,101881.70
2019-03-29T12:00:11.582Z,101888.23
2019-03-29T12:02:44.788Z,101884.89
2019-03-29T12:05:17.625Z,101879.23
2019-03-29T12:07:50.247Z,101874.77
2019-03-29T12:10:23.193Z,101881.02
2019-03-29T12:12:55.941Z,101876.59
2019-03-29T12:15:28.838Z,101879.86
2019-03-29T12:18:01.420Z,101876.67
2019-03-29T12:20:34.688Z,101871.61
2019-03-29T12:23:10.315Z,101863.02
2019-03-29T12:25:43.023Z,101869.05
2019-03-29T12:28:15.698Z,101860.82
2019-03-29T12:30:48.459Z,101856.24
2019-03-29T12:33:21.064Z,101853.44
2019-03-29T12:35:54.085Z,101849.83
2019-03-29T12:38:26.830Z,101850.05
2019-03-29T12:40:59.628Z,101842.50
2019-03-29T12:43:32.435Z,101843.45
2019-03-29T12:46:06.944Z,101841.73
2019-03-29T12:48:39.561Z,101847.56
2019-03-29T12:51:12.841Z,101836.22
2019-03-29T12:53:45.466Z,101848.61
2019-03-29T12:56:18.399Z,101840.92
2019-03-29T12:58:51.019Z,101836.30
2019-03-29T13:01:38.434Z,101841.43
2019-03-29T13:03:58.446Z,101821.11
2019-03-29T13:06:31.122Z,101821.67
2019-03-29T13:09:04.993Z,101820.50
2019-03-29T13:11:37.771Z,101815.01
2019-03-29T13:14:10.963Z,101808.09
2019-03-29T13:16:46.100Z,101812.38
2019-03-29T13:19:18.786Z,101807.17
2019-03-29T13:21:51.492Z,101807.58
2019-03-29T13:24:24.087Z,101809.73
2019-03-29T13:26:57.013Z,101805.99
2019-03-29T13:29:29.828Z,101807.70
2019-03-29T13:32:02.625Z,101805.75
2019-03-29T13:34:35.473Z,101799.33
2019-03-29T13:37:08.342Z,101795.54
2019-03-29T13:39:40.960Z,101795.46
2019-03-29T13:42:13.716Z,101792.11
2019-03-29T13:44:47.817Z,101786.52
2019-03-29T13:47:20.599Z,101789.79
2019-03-29T13:49:53.236Z,101790.34
2019-03-29T13:52:26.173Z,101782.98
2019-03-29T13:54:58.825Z,101789.03
2019-03-29T13:57:31.619Z,101785.38
2019-03-29T14:00:04.886Z,101783.30
2019-03-29T14:02:37.685Z,101781.73
2019-03-29T14:05:10.469Z,101779.80
2019-03-29T14:07:43.463Z,101782.02
2019-03-29T14:10:16.645Z,101776.83
2019-03-29T14:12:50.995Z,101781.72
2019-03-29T14:15:23.599Z,101777.95
2019-03-29T14:17:56.561Z,101780.81
2019-03-29T14:20:38.228Z,101773.04
2019-03-29T14:23:11.141Z,101775.13
2019-03-29T14:25:45.561Z,101771.25
2019-03-29T14:28:18.303Z,101767.00
2019-03-29T14:30:50.958Z,101765.68
2019-03-29T14:33:23.996Z,101765.22
2019-03-29T14:35:56.617Z,101767.84
2019-03-29T14:38:29.783Z,101773.67
2019-03-29T14:41:02.413Z,101763.98
2019-03-29T14:43:36.304Z,101758.63
2019-03-29T14:46:08.965Z,101755.23
2019-03-29T14:48:42.061Z,101758.70
2019-03-29T14:51:14.741Z,101759.66
2019-03-29T14:53:47.579Z,101757.94
2019-03-29T14:56:20.205Z,101754.60
2019-03-29T14:58:52.969Z,101756.22
2019-03-29T15:01:25.620Z,101754.83
2019-03-29T15:03:58.523Z,101749.48
2019-03-29T15:06:31.194Z,101749.95
2019-03-29T15:09:06.963Z,101745.30
2019-03-29T15:11:39.669Z,101747.17
2019-03-29T15:14:12.735Z,101741.20
2019-03-29T15:16:45.340Z,101746.99
2019-03-29T15:19:18.189Z,101745.23
2019-03-29T15:21:50.913Z,101741.03
2019-03-29T15:24:23.954Z,101738.94
2019-03-29T15:26:56.551Z,101740.55
2019-03-29T15:29:31.537Z,101744.98
2019-03-29T15:32:04.116Z,101744.21
2019-03-29T15:34:37.030Z,101752.52
2019-03-29T15:37:10.190Z,101744.28
2019-03-29T15:39:43.840Z,101744.36
2019-03-29T15:42:16.672Z,101740.95
2019-03-29T15:44:49.527Z,101746.63
2019-03-29T15:47:22.162Z,101745.30
2019-03-29T15:49:56.144Z,101730.71
2019-03-29T15:52:29.382Z,101735.39
2019-03-29T15:55:02.685Z,101743.11
2019-03-29T15:57:35.369Z,101740.73
2019-03-29T16:00:09.163Z,101735.64
2019-03-29T16:02:41.893Z,101733.30
2019-03-29T16:05:15.990Z,101732.75
2019-03-29T16:07:48.570Z,101735.46
2019-03-29T16:10:21.732Z,101738.97
2019-03-29T16:12:54.361Z,101729.68
2019-03-29T16:15:34.981Z,101734.20
2019-03-29T16:18:01.554Z,101738.09
2019-03-29T16:20:34.425Z,101732.60
2019-03-29T16:23:07.121Z,101731.83
2019-03-29T16:25:40.382Z,101726.09
2019-03-29T16:28:12.982Z,101725.88
2019-03-29T16:30:45.834Z,101731.90
2019-03-29T16:33:18.485Z,101729.05
2019-03-29T16:35:51.205Z,101722.66
2019-03-29T16:38:23.795Z,101726.91
2019-03-29T16:40:56.778Z,101724.34
2019-03-29T16:43:29.363Z,101722.88
2019-03-29T16:46:02.869Z,101717.44
2019-03-29T16:48:35.436Z,101717.94
2019-03-29T16:51:08.421Z,101713.98
2019-03-29T16:53:41.076Z,101714.41
2019-03-29T16:56:15.525Z,101714.81
2019-03-29T16:58:48.355Z,101713.00
2019-03-29T17:01:21.056Z,101714.63
2019-03-29T17:03:53.732Z,101714.04
2019-03-29T17:06:26.643Z,101711.69
2019-03-29T17:08:59.342Z,101711.19
2019-03-29T17:11:32.623Z,101702.07
2019-03-29T17:14:05.338Z,101696.11
2019-03-29T17:16:38.111Z,101688.96
2019-03-29T17:19:10.752Z,101689.53
2019-03-29T17:21:43.549Z,101688.98
2019-03-29T17:24:16.201Z,101687.91
2019-03-29T17:26:49.428Z,101688.89
2019-03-29T17:29:22.141Z,101685.94
2019-03-29T17:31:55.099Z,101684.52
2019-03-29T17:34:29.570Z,101682.29
2019-03-29T17:37:02.538Z,101686.75
2019-03-29T17:39:35.297Z,101680.87
2019-03-29T17:42:08.787Z,101675.22
2019-03-29T17:44:41.415Z,101683.55
2019-03-29T17:47:14.446Z,101672.86
2019-03-29T17:49:47.227Z,101676.70
2019-03-29T17:52:20.012Z,101675.83
2019-03-29T17:54:52.752Z,101675.73
2019-03-29T17:57:25.885Z,101671.48
2019-03-29T17:59:58.578Z,101671.45
2019-03-29T18:02:31.407Z,101677.14
2019-03-29T18:05:04.196Z,101668.72
2019-03-29T18:07:37.128Z,101678.22
2019-03-29T18:10:11.379Z,101678.16
2019-03-29T18:12:44.553Z,101678.49
2019-03-29T18:15:19.204Z,101676.64
2019-03-29T18:17:52.192Z,101674.85
2019-03-29T18:20:24.965Z,101677.69
2019-03-29T18:22:58.293Z,101672.16
2019-03-29T18:25:31.119Z,101676.10
2019-03-29T18:28:04.139Z,101673.64
2019-03-29T18:30:40.475Z,101676.66
2019-03-29T18:33:14.809Z,101673.59
2019-03-29T18:35:47.622Z,101671.55
2019-03-29T18:38:20.468Z,101680.50
2019-03-29T18:40:53.391Z,101672.21
2019-03-29T18:43:26.559Z,101676.16
2019-03-29T18:45:59.248Z,101670.52
2019-03-29T18:48:32.293Z,101676.42
2019-03-29T18:51:05.245Z,101676.52
2019-03-29T18:53:38.593Z,101675.72
2019-03-29T18:56:12.655Z,101671.50
2019-03-29T18:58:46.029Z,101680.05
2019-03-29T19:01:19.237Z,101676.25
2019-03-29T19:03:53.182Z,101669.53
2019-03-29T19:06:26.338Z,101672.38
2019-03-29T19:08:59.659Z,101672.57
2019-03-29T19:11:32.944Z,101666.08
2019-03-29T19:14:06.657Z,101666.48
2019-03-29T19:16:39.818Z,101673.25
2019-03-29T19:19:13.473Z,101666.41
2019-03-29T19:21:46.524Z,101665.59
2019-03-29T19:24:20.079Z,101658.96
2019-03-29T19:26:53.325Z,101664.21
2019-03-29T19:29:27.251Z,101664.75
2019-03-29T19:32:00.159Z,101662.00
2019-03-29T19:34:33.604Z,101661.47
2019-03-29T19:37:06.545Z,101660.63
2019-03-29T19:39:40.248Z,101663.31
2019-03-29T19:42:16.524Z,101658.66
2019-03-29T19:44:47.953Z,101660.87
2019-03-29T19:47:20.707Z,101657.41
2019-03-29T19:49:55.303Z,101656.34
2019-03-29T19:52:28.206Z,101652.59
2019-03-29T19:55:01.988Z,101653.47
2019-03-29T19:57:35.307Z,101652.69
2019-03-29T20:00:11.452Z,101646.84
2019-03-29T20:02:44.403Z,101642.03
2019-03-29T20:05:36.343Z,101642.19
2019-03-29T20:08:09.174Z,101639.75
2019-03-29T20:10:42.327Z,101639.27
2019-03-29T20:13:15.215Z,101646.08
2019-03-29T20:15:48.461Z,101647.86
2019-03-29T20:18:21.286Z,101644.87
2019-03-29T20:20:54.204Z,101646.67
2019-03-29T20:23:27.139Z,101646.30
2019-03-29T20:26:00.268Z,101642.23
2019-03-29T20:28:33.105Z,101647.39
2019-03-29T20:31:06.217Z,101651.98
2019-03-29T20:33:39.117Z,101642.73
2019-03-29T20:36:12.610Z,101638.29
2019-03-29T20:38:45.375Z,101640.51
2019-03-29T20:41:18.386Z,101645.94
2019-03-29T20:43:51.010Z,101641.28
2019-03-29T20:46:24.187Z,101643.91
2019-03-29T20:48:57.136Z,101643.05
2019-03-29T20:51:30.487Z,101643.84
2019-03-29T20:54:03.248Z,101647.66
2019-03-29T20:56:36.556Z,101640.43
2019-03-29T20:59:09.293Z,101633.95
2019-03-29T21:01:41.999Z,101633.59
2019-03-29T21:04:14.689Z,101638.41
2019-03-29T21:06:47.430Z,101632.03
2019-03-29T21:09:20.134Z,101638.06
2019-03-29T21:11:52.984Z,101627.91
2019-03-29T21:14:25.663Z,101625.66
2019-03-29T21:16:58.795Z,101637.04
2019-03-29T21:19:31.565Z,101629.09
2019-03-29T21:22:04.505Z,101625.73
2019-03-29T21:24:37.222Z,101629.81
2019-03-29T21:27:10.238Z,101628.50
2019-03-29T21:29:42.917Z,101623.91
2019-03-29T21:32:16.005Z,101626.70
2019-03-29T21:34:48.869Z,101624.92
2019-03-29T21:37:21.876Z,101625.27
2019-03-29T21:39:54.457Z,101627.95
2019-03-29T21:42:27.515Z,101624.28
2019-03-29T21:45:00.286Z,101627.55
2019-03-29T21:47:34.542Z,101622.36
2019-03-29T21:50:09.423Z,101627.49
2019-03-29T21:52:42.885Z,101623.30
2019-03-29T21:55:17.306Z,101618.41
2019-03-29T21:57:50.262Z,101618.61
2019-03-29T22:00:22.895Z,101616.77
2019-03-29T22:02:56.036Z,101614.80
2019-03-29T22:05:28.714Z,101612.95
2019-03-29T22:08:01.682Z,101613.37
2019-03-29T22:10:34.324Z,101609.14
2019-03-29T22:13:07.162Z,101606.64
2019-03-29T22:15:39.804Z,101603.11
2019-03-29T22:18:12.939Z,101604.95
2019-03-29T22:20:45.566Z,101601.54
2019-03-29T22:23:18.219Z,101597.31
2019-03-29T22:25:50.856Z,101599.79
2019-03-29T22:28:23.531Z,101593.70
2019-03-29T22:30:56.210Z,101587.99
2019-03-29T22:33:29.754Z,101589.77
2019-03-29T22:36:03.401Z,101586.06
2019-03-29T22:38:36.017Z,101586.53
2019-03-29T22:41:08.920Z,101578.26
2019-03-29T22:43:43.056Z,101577.88
2019-03-29T22:46:15.703Z,101582.30
2019-03-29T22:48:52.398Z,101577.47
2019-03-29T22:51:23.281Z,101578.38
2019-03-29T22:53:56.144Z,101577.47
2019-03-29T22:56:28.807Z,101580.09
2019-03-29T22:59:01.768Z,101574.44
2019-03-29T23:01:39.696Z,101578.20
2019-03-29T23:04:13.043Z,101575.98
2019-03-29T23:06:45.666Z,101575.58
2019-03-29T23:09:18.315Z,101576.13
2019-03-29T23:11:50.939Z,101577.38
2019-03-29T23:14:23.772Z,101570.09
2019-03-29T23:16:56.352Z,101569.11
2019-03-29T23:19:29.552Z,101569.11
2019-03-29T23:22:02.133Z,101565.84
2019-03-29T23:24:35.016Z,101562.69
2019-03-29T23:27:07.707Z,101563.86
2019-03-29T23:29:40.459Z,101552.84
2019-03-29T23:32:13.227Z,101553.25
2019-03-29T23:34:46.132Z,101555.70
2019-03-29T23:37:19.092Z,101550.23
2019-03-29T23:39:52.279Z,101556.48
2019-03-29T23:42:25.017Z,101553.90
2019-03-29T23:44:57.880Z,101550.92
2019-03-29T23:47:30.558Z,101547.20
2019-03-29T23:50:08.280Z,101550.52
2019-03-29T23:52:40.909Z,101551.78
2019-03-29T23:55:14.232Z,101546.70
2019-03-29T23:57:48.500Z,101549.27
